Mogadore, Ohio
Current Conditions -  °F | °C
As of 7:54 PM on Wednesday 17 Dec 2014 (Local Time) from KAKR Reporting Station
Overcast Overcast  
Wind Chill: 18°   Ceiling: 2000
Heat Index: 30°   Visibility: 8mi
Dew Point: 23°   Wind: 20mph
Humidity: 75%   Direction: 280°W
Pressure: 30.12"   Gusts: 25mph
Location:  41.05°N, 81.4°W
Report Text: KAKR 180054Z AUTO 28017G22KT 8SM OVC020 M01/M05 A3012 RMK AO2 SLP210 T10111050
Loading
Personal Weather Stations






























Interactive Weather Map New forecast layout! Learn more

10-Day Weather Forecast

Advertisements
Track Severe Weather on mobile